Time;durP1;ratioP1;P1;durP2;ratioP2;P2;SDS_P1;SDS_P2;PMS_P1;PMS_P2;Temp;Humidity;BMP_temperature;BMP_pressure;BME280_temperature;BME280_humidity;BME280_pressure;Samples;Min_cycle;Max_cycle;Signal;HPM_P1;HPM_P2
2021/05/29 00:01:34;;;;;;;17.00;11.23;;;;;;;10.70;97.47;102021.34;5001006;28;20054;-85
2021/05/29 00:04:00;;;;;;;16.85;11.20;;;;;;;10.66;97.62;102009.19;5002762;28;20045;-84
2021/05/29 00:06:25;;;;;;;14.73;11.15;;;;;;;10.66;97.63;102016.41;5002925;28;20061;-85
2021/05/29 00:08:51;;;;;;;15.98;11.13;;;;;;;10.55;97.65;102015.50;5005426;28;20116;-85
2021/05/29 00:11:16;;;;;;;14.88;11.27;;;;;;;10.54;98.35;102016.47;5004615;28;20046;-86
2021/05/29 00:13:42;;;;;;;15.32;11.30;;;;;;;10.51;98.53;102010.53;5004173;28;20042;-85
2021/05/29 00:16:09;;;;;;;15.00;10.35;;;;;;;10.49;97.98;102012.50;5005177;28;20049;-85
2021/05/29 00:18:36;;;;;;;13.63;9.85;;;;;;;10.41;98.08;102007.78;5004078;28;20046;-84
2021/05/29 00:21:02;;;;;;;12.98;9.77;;;;;;;10.40;97.90;102011.47;5004050;28;20076;-85
2021/05/29 00:23:27;;;;;;;12.55;8.93;;;;;;;10.37;98.03;102003.69;5005442;28;20512;-86
2021/05/29 00:25:53;;;;;;;13.57;9.55;;;;;;;10.32;98.08;102005.91;5001303;28;20053;-86
2021/05/29 00:28:18;;;;;;;15.60;9.90;;;;;;;10.31;98.09;102002.38;5003308;28;20065;-86
2021/05/29 00:30:45;;;;;;;12.25;9.32;;;;;;;10.26;97.99;102003.72;5003675;28;20046;-86
2021/05/29 00:33:11;;;;;;;13.25;10.10;;;;;;;10.22;98.01;102005.00;5004795;28;20599;-86
2021/05/29 00:35:36;;;;;;;13.82;9.20;;;;;;;10.17;98.02;102008.91;5004150;28;20168;-86
2021/05/29 00:38:02;;;;;;;12.10;9.52;;;;;;;10.10;98.63;102004.22;4999465;28;20041;-87
2021/05/29 00:40:28;;;;;;;13.18;9.43;;;;;;;10.06;98.74;102000.94;4998642;28;20403;-85
2021/05/29 00:42:53;;;;;;;13.30;10.23;;;;;;;9.97;98.87;102001.72;5003519;28;20049;-87
2021/05/29 00:45:19;;;;;;;14.90;10.43;;;;;;;9.89;99.15;101993.47;4999014;28;20046;-86
2021/05/29 00:47:45;;;;;;;13.70;9.50;;;;;;;9.83;99.22;101989.47;5004809;28;20053;-86
2021/05/29 00:50:13;;;;;;;13.27;8.75;;;;;;;9.78;99.04;101991.72;5005541;28;20042;-86
2021/05/29 00:52:39;;;;;;;13.07;9.93;;;;;;;9.79;99.32;101997.94;4983772;28;20058;-87
2021/05/29 00:55:11;;;;;;;17.88;10.88;;;;;;;9.76;99.89;101996.34;5000656;28;20118;-86
2021/05/29 00:57:39;;;;;;;15.93;10.45;;;;;;;9.70;100.00;102004.91;5001016;28;20038;-85
2021/05/29 01:00:06;;;;;;;13.35;9.57;;;;;;;9.66;100.00;102006.13;5003279;28;20042;-84
2021/05/29 01:02:32;;;;;;;12.50;9.43;;;;;;;9.57;99.56;102010.44;5000688;28;20631;-88
2021/05/29 01:04:57;;;;;;;15.23;10.30;;;;;;;9.53;99.97;102003.66;5004358;28;20128;-85
2021/05/29 01:07:22;;;;;;;13.27;10.63;;;;;;;9.50;100.00;102009.28;5004182;28;20128;-85
2021/05/29 01:09:48;;;;;;;13.90;10.32;;;;;;;9.39;100.00;102014.66;5004867;28;20515;-87
2021/05/29 01:12:17;;;;;;;15.07;10.77;;;;;;;9.34;100.00;102008.81;5009510;28;20141;-86
2021/05/29 01:14:57;;;;;;;16.73;10.82;;;;;;;9.35;100.00;102006.03;5008763;28;20050;-90
2021/05/29 01:17:25;;;;;;;15.98;10.35;;;;;;;9.31;100.00;102011.75;5003486;28;20119;-87
2021/05/29 01:19:51;;;;;;;15.90;11.00;;;;;;;9.25;100.00;102005.91;5002796;28;20046;-87
2021/05/29 01:22:37;;;;;;;14.45;10.75;;;;;;;9.19;100.00;102010.94;5004030;28;20224;-85
2021/05/29 01:25:12;;;;;;;14.35;10.60;;;;;;;9.14;100.00;102015.81;5004271;28;20265;-87
2021/05/29 01:27:37;;;;;;;16.80;10.93;;;;;;;9.11;100.00;102013.38;5005925;28;20057;-85
2021/05/29 01:30:05;;;;;;;15.77;10.55;;;;;;;9.07;100.00;102014.63;5005936;28;20507;-85
2021/05/29 01:32:33;;;;;;;15.98;10.88;;;;;;;9.04;100.00;102015.72;5007183;28;20141;-86
2021/05/29 01:35:06;;;;;;;16.02;11.32;;;;;;;9.04;100.00;102021.09;5009500;28;20046;-85
2021/05/29 01:37:32;;;;;;;15.32;11.40;;;;;;;9.04;100.00;102024.59;5004369;28;20057;-86
2021/05/29 01:39:58;;;;;;;15.45;11.18;;;;;;;9.01;100.00;102016.81;5004583;28;20046;-85
2021/05/29 01:42:25;;;;;;;19.30;11.95;;;;;;;8.93;100.00;102015.75;4999545;28;20050;-85
2021/05/29 01:44:50;;;;;;;14.90;11.85;;;;;;;8.91;100.00;102023.03;5002788;28;20395;-86
2021/05/29 01:47:16;;;;;;;16.38;11.43;;;;;;;8.87;100.00;102019.75;5005436;28;20046;-85
2021/05/29 01:49:42;;;;;;;15.13;11.00;;;;;;;8.84;100.00;102021.84;5009387;28;20049;-86
2021/05/29 01:52:07;;;;;;;17.88;12.35;;;;;;;8.84;100.00;102022.69;5004821;28;20092;-85
2021/05/29 01:54:33;;;;;;;18.25;11.77;;;;;;;8.75;100.00;102024.28;5001708;28;20046;-86
2021/05/29 01:56:59;;;;;;;17.98;12.18;;;;;;;8.68;100.00;102028.41;5004178;28;20041;-84
2021/05/29 01:59:24;;;;;;;14.70;11.35;;;;;;;8.68;100.00;102027.53;5002202;28;20131;-86
2021/05/29 02:01:50;;;;;;;16.33;12.38;;;;;;;8.70;100.00;102028.28;5002518;28;20061;-86
2021/05/29 02:04:15;;;;;;;15.88;11.20;;;;;;;8.64;100.00;102026.94;5001041;28;20061;-85
2021/05/29 02:06:41;;;;;;;22.10;12.65;;;;;;;8.60;100.00;102025.47;5004368;28;20115;-85
2021/05/29 02:09:07;;;;;;;19.00;13.07;;;;;;;8.54;100.00;102016.09;5001788;28;20058;-86
2021/05/29 02:11:33;;;;;;;18.13;12.00;;;;;;;8.52;100.00;102022.56;5008201;28;20045;-85
2021/05/29 02:13:58;;;;;;;17.88;12.88;;;;;;;8.55;100.00;102028.53;5006291;28;20062;-84
2021/05/29 02:16:24;;;;;;;18.25;12.65;;;;;;;8.52;100.00;102026.09;5002922;28;22152;-86
2021/05/29 02:18:49;;;;;;;19.02;13.15;;;;;;;8.48;100.00;102019.25;5003852;28;20057;-88
2021/05/29 02:21:16;;;;;;;16.55;12.20;;;;;;;8.42;100.00;102022.44;5001394;28;20054;-85
2021/05/29 02:23:46;;;;;;;17.88;13.05;;;;;;;8.39;100.00;102019.16;5003046;28;20054;-85
2021/05/29 02:26:14;;;;;;;19.42;13.75;;;;;;;8.33;100.00;102020.44;5002182;28;20065;-85
2021/05/29 02:28:42;;;;;;;20.25;13.40;;;;;;;8.24;100.00;102016.66;5004115;28;20050;-84
2021/05/29 02:31:09;;;;;;;18.23;13.35;;;;;;;8.24;100.00;102022.00;5001912;28;20056;-85
2021/05/29 02:33:35;;;;;;;22.23;14.38;;;;;;;8.21;100.00;102018.72;5003634;28;20050;-87
2021/05/29 02:36:02;;;;;;;20.45;13.40;;;;;;;8.19;100.00;102010.81;5001129;28;20532;-88
2021/05/29 02:38:28;;;;;;;19.60;14.40;;;;;;;8.16;100.00;102019.06;5005280;28;20053;-86
2021/05/29 02:40:55;;;;;;;18.02;13.60;;;;;;;8.11;100.00;102011.44;5006919;28;20133;-86
2021/05/29 02:43:20;;;;;;;22.58;15.55;;;;;;;8.13;100.00;102016.63;5006771;28;20076;-85
2021/05/29 02:45:45;;;;;;;20.88;14.13;;;;;;;8.12;100.00;102014.94;5002262;28;20492;-86
2021/05/29 02:48:13;;;;;;;17.92;13.23;;;;;;;8.06;100.00;102016.28;5002049;28;20100;-87
2021/05/29 02:50:39;;;;;;;22.17;14.10;;;;;;;7.99;100.00;102017.69;5003496;28;20038;-85
2021/05/29 02:53:06;;;;;;;19.00;14.00;;;;;;;7.96;100.00;102011.75;5000889;28;20074;-86
2021/05/29 02:55:32;;;;;;;21.90;14.52;;;;;;;7.90;100.00;102011.22;5001553;28;20415;-86
2021/05/29 02:57:58;;;;;;;23.20;14.65;;;;;;;7.87;100.00;102014.16;5001917;28;20075;-87
2021/05/29 03:00:36;;;;;;;20.85;14.82;;;;;;;7.86;100.00;102016.94;4999719;28;20045;-85
2021/05/29 03:03:03;;;;;;;22.05;14.13;;;;;;;7.78;100.00;102017.53;5002339;28;20046;-86
2021/05/29 03:05:29;;;;;;;23.60;16.10;;;;;;;7.74;100.00;102016.06;5002305;28;20057;-86
2021/05/29 03:07:54;;;;;;;21.35;15.70;;;;;;;7.69;100.00;102018.22;5002280;28;20096;-87
2021/05/29 03:10:22;;;;;;;21.70;15.25;;;;;;;7.63;100.00;102013.34;5002096;28;20085;-85
2021/05/29 03:12:48;;;;;;;23.77;14.63;;;;;;;7.57;100.00;102009.31;5004020;28;20116;-89
2021/05/29 03:15:17;;;;;;;22.85;15.43;;;;;;;7.58;100.00;102015.50;5002626;28;20475;-85
2021/05/29 03:17:43;;;;;;;21.42;15.43;;;;;;;7.58;100.00;102015.50;5003802;28;20045;-88
2021/05/29 03:20:11;;;;;;;25.42;16.33;;;;;;;7.56;100.00;102014.75;5000855;28;20050;-84
2021/05/29 03:22:36;;;;;;;22.33;15.35;;;;;;;7.55;100.00;102015.72;5003073;28;20053;-85
2021/05/29 03:25:04;;;;;;;24.55;15.65;;;;;;;7.53;100.00;102020.31;5001397;28;20049;-86
2021/05/29 03:27:30;;;;;;;24.17;16.33;;;;;;;7.51;100.00;102012.44;4999439;28;20136;-86
2021/05/29 03:29:56;;;;;;;20.92;14.50;;;;;;;7.46;100.00;102023.47;5004156;28;20400;-88
2021/05/29 03:32:22;;;;;;;22.25;15.05;;;;;;;7.47;100.00;102022.47;5001147;28;20256;-84
2021/05/29 03:34:47;;;;;;;22.35;15.75;;;;;;;7.44;100.00;102028.06;5002432;28;20496;-85
2021/05/29 03:37:12;;;;;;;22.48;15.30;;;;;;;7.42;100.00;102031.81;5002286;28;20220;-84
2021/05/29 03:39:39;;;;;;;21.30;15.25;;;;;;;7.37;100.00;102034.81;5003528;28;20129;-84
2021/05/29 03:42:05;;;;;;;24.60;16.05;;;;;;;7.30;100.00;102025.53;5004298;28;20046;-88
2021/05/29 03:44:31;;;;;;;24.13;15.80;;;;;;;7.34;100.00;102032.38;5006311;28;20789;-85
2021/05/29 03:46:56;;;;;;;22.02;16.08;;;;;;;7.34;100.00;102040.41;5005923;28;20044;-87
2021/05/29 03:49:21;;;;;;;25.77;16.98;;;;;;;7.34;100.00;102029.72;5001987;28;20053;-85
2021/05/29 03:51:47;;;;;;;26.38;16.20;;;;;;;7.34;100.00;102040.41;5000556;28;20049;-84
2021/05/29 03:54:12;;;;;;;25.67;16.73;;;;;;;7.38;100.00;102041.88;4999653;28;20076;-86
2021/05/29 03:56:38;;;;;;;25.65;17.15;;;;;;;7.42;100.00;102032.69;5004880;28;20045;-84
2021/05/29 03:59:04;;;;;;;23.85;15.85;;;;;;;7.38;100.00;102041.88;4999467;28;23412;-86
2021/05/29 04:01:30;;;;;;;25.55;16.52;;;;;;;7.36;100.00;102048.28;5002281;28;20124;-84
2021/05/29 04:03:56;;;;;;;27.33;18.05;;;;;;;7.46;100.00;102050.16;5006027;28;20453;-84
2021/05/29 04:06:22;;;;;;;27.70;18.10;;;;;;;7.50;100.00;102044.59;5001564;28;20125;-85
2021/05/29 04:08:48;;;;;;;26.92;17.17;;;;;;;7.49;100.00;102050.91;5006084;28;20808;-86
2021/05/29 04:11:13;;;;;;;25.58;17.60;;;;;;;7.52;100.00;102043.53;5002469;28;20137;-85
2021/05/29 04:13:39;;;;;;;27.95;17.38;;;;;;;7.53;100.00;102049.72;5000637;28;20140;-85
2021/05/29 04:16:04;;;;;;;24.73;16.73;;;;;;;7.57;100.00;102053.88;5003402;28;20088;-85
2021/05/29 04:18:30;;;;;;;32.45;21.00;;;;;;;7.62;100.00;102051.69;5001859;28;20492;-85
2021/05/29 04:20:55;;;;;;;28.15;19.80;;;;;;;7.71;100.00;102064.38;5004051;28;20046;-85
2021/05/29 04:23:20;;;;;;;29.58;19.67;;;;;;;7.79;100.00;102061.97;5004939;28;20046;-86
2021/05/29 04:25:46;;;;;;;28.38;19.15;;;;;;;7.80;100.00;102063.69;5004067;28;20065;-85
2021/05/29 04:28:12;;;;;;;32.35;20.65;;;;;;;7.87;100.00;102064.94;5005834;28;20460;-84
2021/05/29 04:30:37;;;;;;;31.33;20.42;;;;;;;7.91;100.00;102066.41;5002468;28;20052;-88
2021/05/29 04:33:03;;;;;;;35.63;21.17;;;;;;;7.98;100.00;102066.78;4985045;28;20053;-84
2021/05/29 04:35:28;;;;;;;34.25;22.27;;;;;;;8.09;100.00;102057.97;4997413;28;20053;-88
2021/05/29 04:37:54;;;;;;;36.75;20.77;;;;;;;8.14;100.00;102066.47;5002099;28;20429;-87
2021/05/29 04:40:21;;;;;;;37.38;23.27;;;;;;;8.20;100.00;102068.69;5001776;28;20333;-86
2021/05/29 04:42:48;;;;;;;36.65;23.88;;;;;;;8.24;100.00;102072.81;5002460;28;20053;-89
2021/05/29 04:45:14;;;;;;;36.08;23.98;;;;;;;8.33;100.00;102076.59;5003867;28;20050;-84
2021/05/29 04:47:40;;;;;;;39.80;24.35;;;;;;;8.39;100.00;102083.34;5003285;28;20050;-85
2021/05/29 04:50:08;;;;;;;42.42;26.33;;;;;;;8.46;100.00;102084.56;5003086;28;20045;-85
2021/05/29 04:52:34;;;;;;;38.58;24.92;;;;;;;8.51;100.00;102087.72;4999398;28;20147;-86
2021/05/29 04:54:59;;;;;;;43.38;25.67;;;;;;;8.58;100.00;102087.16;4999151;28;20503;-85
2021/05/29 04:57:25;;;;;;;42.58;25.88;;;;;;;8.64;100.00;102093.84;5002852;28;20064;-85
2021/05/29 04:59:50;;;;;;;41.85;26.05;;;;;;;8.68;100.00;102103.31;4999007;28;20046;-87
2021/05/29 05:02:15;;;;;;;40.72;24.63;;;;;;;8.73;100.00;102101.16;5002777;28;20165;-86
2021/05/29 05:04:41;;;;;;;41.83;26.27;;;;;;;8.75;100.00;102104.56;5003811;28;20114;-89
2021/05/29 05:07:06;;;;;;;37.15;25.20;;;;;;;8.81;100.00;102104.06;5003920;28;20424;-87
2021/05/29 05:09:32;;;;;;;38.58;25.50;;;;;;;8.88;100.00;102103.59;4998425;28;20038;-85
2021/05/29 05:11:57;;;;;;;42.38;25.10;;;;;;;8.91;100.00;102098.84;5004101;28;20042;-85
2021/05/29 05:14:23;;;;;;;41.40;26.10;;;;;;;9.01;100.00;102107.00;4999513;28;20050;-87
2021/05/29 05:16:49;;;;;;;46.28;25.98;;;;;;;9.06;100.00;102102.13;5001210;28;20065;-88
2021/05/29 05:19:14;;;;;;;40.40;26.38;;;;;;;9.10;100.00;102103.59;5003579;28;20046;-85
2021/05/29 05:21:40;;;;;;;37.83;24.73;;;;;;;9.16;100.00;102108.44;5004802;28;20734;-86
2021/05/29 05:24:05;;;;;;;43.08;26.23;;;;;;;9.22;100.00;102109.78;5001785;28;20077;-86
2021/05/29 05:26:31;;;;;;;37.13;24.42;;;;;;;9.29;100.00;102096.75;5002016;28;20746;-87
2021/05/29 05:28:57;;;;;;;36.15;26.00;;;;;;;9.39;100.00;102101.25;5002527;28;20042;-85
2021/05/29 05:31:22;;;;;;;38.55;25.52;;;;;;;9.44;100.00;102101.72;5000429;28;20050;-88
2021/05/29 05:33:50;;;;;;;36.65;23.23;;;;;;;9.52;100.00;102109.13;5000617;28;20046;-86
2021/05/29 05:36:15;;;;;;;33.88;23.23;;;;;;;9.57;100.00;102112.28;5000042;28;20754;-87
2021/05/29 05:38:45;;;;;;;31.67;21.83;;;;;;;9.68;100.00;102106.03;4962024;28;20049;-86
2021/05/29 05:41:10;;;;;;;35.35;23.00;;;;;;;9.76;100.00;102116.16;4999419;28;20045;-90
2021/05/29 05:43:36;;;;;;;31.13;21.58;;;;;;;9.83;100.00;102112.81;4994793;28;20050;-87
2021/05/29 05:46:02;;;;;;;38.13;23.00;;;;;;;9.89;100.00;102116.81;4988942;28;20497;-86
2021/05/29 05:48:28;;;;;;;33.15;21.73;;;;;;;9.96;100.00;102122.53;5002918;28;20048;-87
2021/05/29 05:50:55;;;;;;;36.58;23.08;;;;;;;10.06;100.00;102118.94;5001060;28;20052;-86
2021/05/29 05:53:25;;;;;;;31.80;21.30;;;;;;;10.15;100.00;102120.00;4996839;28;20074;-85
2021/05/29 05:55:58;;;;;;;33.03;20.77;;;;;;;10.25;100.00;102122.78;5005277;28;20052;-84
2021/05/29 05:58:24;;;;;;;31.52;22.05;;;;;;;10.32;100.00;102121.28;4996495;28;20048;-86
2021/05/29 06:00:49;;;;;;;28.33;19.75;;;;;;;10.39;100.00;102130.53;4993336;28;20721;-84
2021/05/29 06:03:17;;;;;;;29.85;19.13;;;;;;;10.43;100.00;102131.97;4988628;28;20481;-85
2021/05/29 06:05:42;;;;;;;30.08;18.15;;;;;;;10.55;100.00;102122.84;4992535;28;20133;-84
2021/05/29 06:08:10;;;;;;;25.70;18.05;;;;;;;10.61;100.00;102130.38;4987220;28;20125;-84
2021/05/29 06:10:36;;;;;;;24.23;17.52;;;;;;;10.73;98.56;102130.31;4988766;28;20054;-85
2021/05/29 06:13:01;;;;;;;23.60;16.17;;;;;;;10.80;98.43;102135.03;4992952;28;20046;-85
2021/05/29 06:19:09;;;;;;;22.42;15.90;;;;;;;10.99;97.43;102139.66;5001933;28;20053;-84
2021/05/29 06:21:05;;;;;;;21.75;15.93;;;;;;;11.07;96.75;102134.44;5001677;28;20049;-86
2021/05/29 06:23:30;;;;;;;21.08;14.77;;;;;;;11.15;95.97;102141.81;4996255;28;20100;-85
2021/05/29 06:25:56;;;;;;;17.02;13.45;;;;;;;11.26;94.51;102139.03;4990890;28;20488;-86
2021/05/29 06:28:21;;;;;;;15.43;11.05;;;;;;;11.28;92.39;102150.50;4981341;28;20065;-87
2021/05/29 06:30:46;;;;;;;17.45;12.35;;;;;;;11.33;92.50;102146.56;4978395;28;20412;-87
2021/05/29 06:33:14;;;;;;;15.35;11.48;;;;;;;11.36;91.54;102147.13;5001320;28;20128;-85
2021/05/29 06:35:42;;;;;;;14.63;11.00;;;;;;;11.45;91.28;102146.34;5002546;28;20080;-86
2021/05/29 06:38:07;;;;;;;13.77;9.93;;;;;;;11.52;89.70;102152.84;5000988;28;20054;-85
2021/05/29 06:40:33;;;;;;;14.55;10.80;;;;;;;11.51;89.60;102156.53;5003975;28;20050;-86
2021/05/29 06:42:58;;;;;;;14.77;9.77;;;;;;;11.63;89.22;102154.59;5001268;28;20050;-85
2021/05/29 06:45:26;;;;;;;14.05;10.60;;;;;;;11.69;88.39;102153.19;4990521;28;20128;-86
2021/05/29 06:47:51;;;;;;;13.35;10.43;;;;;;;11.74;88.51;102157.16;5017813;28;20057;-85
2021/05/29 06:50:17;;;;;;;15.38;11.38;;;;;;;11.81;88.81;102162.81;5006353;28;20116;-85
2021/05/29 06:52:49;;;;;;;13.93;11.05;;;;;;;11.92;88.84;102153.81;5003859;28;20443;-85
2021/05/29 07:00:42;;;;;;;15.80;12.13;;;;;;;12.19;88.06;102166.56;4999647;28;20116;-85
2021/05/29 07:03:07;;;;;;;13.68;10.70;;;;;;;12.22;86.75;102160.91;4994887;28;20484;-88
2021/05/29 07:05:33;;;;;;;13.65;10.38;;;;;;;12.32;86.99;102169.84;5000410;28;20046;-85
2021/05/29 07:07:58;;;;;;;16.33;10.77;;;;;;;12.38;85.14;102158.50;5005374;28;20060;-85
2021/05/29 07:10:24;;;;;;;13.68;10.43;;;;;;;12.33;86.08;102154.53;5003187;28;20046;-85
2021/05/29 07:12:51;;;;;;;15.95;10.98;;;;;;;12.36;85.84;102156.94;5006298;28;20444;-86
2021/05/29 07:15:17;;;;;;;13.75;11.05;;;;;;;12.40;85.82;102163.75;5001335;28;20042;-85
2021/05/29 07:17:45;;;;;;;17.65;11.35;;;;;;;12.33;84.19;102163.44;5003237;28;20103;-85
2021/05/29 07:20:11;;;;;;;16.52;11.25;;;;;;;12.51;87.41;102165.41;5002043;28;20129;-86
2021/05/29 07:22:37;;;;;;;13.57;10.40;;;;;;;12.46;84.38;102162.28;4995363;28;20046;-85
2021/05/29 07:25:05;;;;;;;14.13;9.55;;;;;;;12.46;85.26;102162.28;5002701;28;20416;-86
2021/05/29 07:27:31;;;;;;;13.65;10.35;;;;;;;12.58;85.25;102170.09;5000881;28;20050;-87
2021/05/29 07:29:57;;;;;;;14.10;10.07;;;;;;;12.64;85.09;102182.13;5003166;28;20065;-87
2021/05/29 07:32:23;;;;;;;13.85;9.70;;;;;;;12.71;83.96;102177.84;5001406;28;20054;-87
2021/05/29 07:34:51;;;;;;;14.93;10.45;;;;;;;12.70;83.26;102180.72;4997099;28;20041;-87
2021/05/29 07:37:16;;;;;;;12.60;9.77;;;;;;;12.70;84.49;102186.94;4948655;28;20113;-86
2021/05/29 07:39:41;;;;;;;14.13;9.95;;;;;;;12.75;85.26;102189.22;4958140;28;20582;-87
2021/05/29 07:42:07;;;;;;;14.13;9.73;;;;;;;12.72;82.31;102181.41;4959298;28;20046;-87
2021/05/29 07:44:32;;;;;;;14.52;9.60;;;;;;;12.84;83.21;102189.19;4961958;28;20552;-87
2021/05/29 07:46:58;;;;;;;13.73;8.88;;;;;;;12.96;82.12;102194.41;4947961;28;20074;-87
2021/05/29 07:49:23;;;;;;;12.82;9.73;;;;;;;12.98;81.41;102197.81;4956513;28;20391;-87
2021/05/29 07:51:49;;;;;;;11.77;9.40;;;;;;;13.01;81.28;102200.22;4957859;28;20351;-89
2021/05/29 07:54:14;;;;;;;14.00;10.05;;;;;;;12.99;80.78;102196.81;4962730;28;20168;-86
2021/05/29 07:56:40;;;;;;;15.10;9.48;;;;;;;12.97;81.39;102199.63;4958602;28;20137;-87
2021/05/29 07:59:17;;;;;;;13.55;9.20;;;;;;;13.06;80.70;102192.50;4956856;28;20055;-87
2021/05/29 08:01:46;;;;;;;13.52;9.38;;;;;;;12.93;79.70;102187.47;4972389;28;20053;-87
2021/05/29 08:04:16;;;;;;;13.25;8.93;;;;;;;12.92;80.31;102195.66;4989789;28;20049;-86
2021/05/29 08:06:42;;;;;;;10.27;7.28;;;;;;;12.98;80.18;102195.97;5002458;28;20061;-86
2021/05/29 08:09:07;;;;;;;8.70;6.65;;;;;;;13.02;79.16;102194.66;5002268;28;20046;-86
2021/05/29 08:11:38;;;;;;;9.73;6.97;;;;;;;13.12;79.14;102191.06;5001410;28;20551;-86
2021/05/29 08:14:06;;;;;;;12.52;8.00;;;;;;;13.16;78.93;102193.34;4997464;28;20184;-87
2021/05/29 08:16:31;;;;;;;10.98;7.50;;;;;;;13.17;79.18;102188.78;5001781;28;20042;-87
2021/05/29 08:18:57;;;;;;;13.73;8.25;;;;;;;13.14;80.72;102194.47;5000025;28;20052;-86
2021/05/29 08:21:23;;;;;;;12.82;7.45;;;;;;;13.18;78.95;102196.75;5002883;28;20053;-86
2021/05/29 08:23:49;;;;;;;9.25;7.03;;;;;;;13.07;79.22;102205.84;5001891;28;20054;-90
2021/05/29 08:26:15;;;;;;;9.07;6.20;;;;;;;13.03;78.90;102200.88;5002592;28;20141;-87
2021/05/29 08:28:44;;;;;;;16.85;7.25;;;;;;;13.20;79.21;102200.13;5000975;28;20060;-87
2021/05/29 08:31:10;;;;;;;9.10;7.05;;;;;;;13.02;77.53;102200.03;5004294;28;20060;-86
2021/05/29 08:33:35;;;;;;;10.13;7.97;;;;;;;12.97;79.42;102201.47;5001950;28;20042;-87
2021/05/29 08:36:01;;;;;;;12.95;7.78;;;;;;;12.99;79.20;102200.34;5000300;28;20046;-87
2021/05/29 08:38:26;;;;;;;16.40;10.55;;;;;;;13.04;80.90;102208.84;4998973;28;20065;-87
2021/05/29 08:40:52;;;;;;;12.68;8.90;;;;;;;13.14;79.91;102216.03;5003082;28;20409;-88
2021/05/29 08:43:18;;;;;;;13.95;9.40;;;;;;;13.22;79.45;102214.31;5000625;28;20049;-87
2021/05/29 08:45:44;;;;;;;12.02;9.43;;;;;;;13.08;79.09;102217.47;5003056;28;20066;-88
2021/05/29 08:48:10;;;;;;;12.88;8.93;;;;;;;13.23;80.60;102220.56;5002563;28;20045;-87
2021/05/29 08:50:36;;;;;;;14.65;9.07;;;;;;;13.32;80.55;102217.00;4999543;28;20817;-88
2021/05/29 08:53:01;;;;;;;15.60;9.73;;;;;;;13.50;82.07;102217.09;5005313;28;20553;-89
2021/05/29 08:55:27;;;;;;;14.38;9.05;;;;;;;13.58;80.51;102219.91;4999886;28;20068;-86
2021/05/29 08:57:52;;;;;;;11.55;8.15;;;;;;;13.64;79.36;102224.69;5003888;28;20038;-87
2021/05/29 09:00:27;;;;;;;13.35;7.85;;;;;;;13.59;78.98;102228.84;5003356;28;20099;-88
2021/05/29 09:02:58;;;;;;;10.65;7.55;;;;;;;13.50;77.93;102225.19;5018319;28;20060;-87
2021/05/29 09:05:34;;;;;;;14.70;9.38;;;;;;;13.46;78.49;102226.47;5002676;28;20053;-90
2021/05/29 09:08:05;;;;;;;10.45;7.82;;;;;;;13.37;78.33;102235.44;5004438;28;20447;-89
2021/05/29 09:10:30;;;;;;;10.15;8.15;;;;;;;13.37;79.47;102233.59;5002978;28;20046;-87
2021/05/29 09:13:07;;;;;;;9.90;8.00;;;;;;;13.45;78.92;102230.16;5003460;28;20045;-86
2021/05/29 09:15:47;;;;;;;10.02;8.07;;;;;;;13.42;78.58;102235.84;5002824;28;20073;-87
2021/05/29 09:18:22;;;;;;;11.52;7.45;;;;;;;13.39;78.32;102226.22;5002601;28;20049;-88
2021/05/29 09:20:48;;;;;;;11.00;7.30;;;;;;;13.45;78.77;102227.47;5017779;28;20085;-87
2021/05/29 09:23:13;;;;;;;14.63;8.57;;;;;;;13.40;79.93;102229.75;5003283;28;20072;-87
2021/05/29 09:25:52;;;;;;;10.65;6.78;;;;;;;13.45;77.55;102236.41;5002462;28;20135;-88
2021/05/29 09:28:25;;;;;;;10.57;7.00;;;;;;;13.51;78.33;102234.97;5004799;28;20124;-86
2021/05/29 09:30:52;;;;;;;11.02;6.95;;;;;;;13.63;78.82;102235.63;5004437;28;20057;-88
2021/05/29 09:33:24;;;;;;;9.60;6.85;;;;;;;13.67;78.06;102237.03;5007273;28;20061;-86
2021/05/29 09:35:54;;;;;;;9.40;7.28;;;;;;;13.81;79.74;102232.97;5018880;28;20046;-86
2021/05/29 09:38:20;;;;;;;9.48;6.70;;;;;;;13.83;77.25;102237.22;5005975;28;20408;-88
2021/05/29 09:40:54;;;;;;;10.57;6.75;;;;;;;13.91;76.27;102241.88;5003377;28;20054;-88
2021/05/29 09:43:21;;;;;;;9.55;7.13;;;;;;;13.96;76.33;102235.00;5002205;28;20050;-90
2021/05/29 09:46:00;;;;;;;6.93;5.90;;;;;;;14.09;77.81;102239.19;5001832;28;20065;-87
2021/05/29 09:48:26;;;;;;;;;;;;;;;14.20;76.54;102237.13;5006833;28;20058;-88
2021/05/29 09:51:12;;;;;;;7.90;5.95;;;;;;;14.20;75.74;102244.38;5005442;28;19936;-86
2021/05/29 09:54:07;;;;;;;13.85;7.07;;;;;;;14.11;75.21;102235.34;5000906;28;20050;-87
2021/05/29 09:56:36;;;;;;;8.85;6.45;;;;;;;14.10;75.69;102236.34;5003000;28;20047;-87
2021/05/29 09:59:08;;;;;;;7.30;6.10;;;;;;;14.31;76.10;102244.16;5005760;28;20050;-86
2021/05/29 10:01:48;;;;;;;8.90;5.97;;;;;;;14.32;74.13;102239.59;5004982;28;20396;-87
2021/05/29 10:04:31;;;;;;;7.70;5.35;;;;;;;14.33;74.22;102239.47;5008220;28;20053;-88
2021/05/29 10:06:58;;;;;;;8.52;5.80;;;;;;;14.33;74.63;102242.16;5017587;28;20237;-87
2021/05/29 10:09:25;;;;;;;8.30;6.03;;;;;;;14.37;74.58;102243.53;5007602;28;20050;-87
2021/05/29 10:11:51;;;;;;;7.47;5.43;;;;;;;14.40;75.16;102237.81;5006361;28;20559;-88
2021/05/29 10:14:16;;;;;;;9.00;5.90;;;;;;;14.30;74.66;102247.88;5000739;28;20050;-88
2021/05/29 10:16:43;;;;;;;8.90;5.80;;;;;;;14.25;73.87;102243.94;5004513;28;20444;-87
2021/05/29 10:19:10;;;;;;;8.07;6.25;;;;;;;14.09;73.90;102241.88;5006157;28;20038;-87
2021/05/29 10:21:36;;;;;;;10.52;6.25;;;;;;;13.98;74.97;102237.53;5002171;28;20057;-85
2021/05/29 10:24:04;;;;;;;7.32;5.72;;;;;;;14.25;75.00;102244.78;5005931;28;20054;-86
2021/05/29 10:26:30;;;;;;;10.50;5.70;;;;;;;14.33;74.39;102241.31;5005387;28;20050;-88
2021/05/29 10:28:56;;;;;;;8.90;5.43;;;;;;;14.45;73.82;102242.78;5001529;28;20273;-87
2021/05/29 10:31:28;;;;;;;8.77;5.97;;;;;;;14.43;74.29;102242.06;5005894;28;20407;-87
2021/05/29 10:33:53;;;;;;;12.45;5.97;;;;;;;14.48;73.95;102247.88;4999893;28;20125;-86
2021/05/29 10:36:43;;;;;;;7.07;5.97;;;;;;;14.64;73.03;102250.75;5004517;28;20125;-87
2021/05/29 10:39:23;;;;;;;10.77;5.85;;;;;;;14.47;71.38;102245.31;5005282;28;20053;-87
2021/05/29 10:41:57;;;;;;;8.45;5.40;;;;;;;14.46;73.62;102244.47;5004003;28;20049;-87
2021/05/29 10:44:29;;;;;;;7.65;5.40;;;;;;;14.48;71.61;102234.34;5004700;28;20373;-87
2021/05/29 10:47:16;;;;;;;9.73;5.47;;;;;;;14.60;73.90;102243.09;5004673;28;20057;-87
2021/05/29 10:50:07;;;;;;;8.27;6.00;;;;;;;14.59;71.60;102241.41;5005816;28;20053;-87
2021/05/29 10:55:10;;;;;;;7.65;5.57;;;;;;;14.87;72.70;102231.31;5007452;28;20404;-87
2021/05/29 10:57:54;;;;;;;7.28;5.95;;;;;;;14.86;71.34;102237.75;5000474;28;20053;-88
2021/05/29 11:00:34;;;;;;;8.48;5.97;;;;;;;14.75;72.60;102243.41;5004916;28;20104;-88
2021/05/29 11:03:24;;;;;;;8.90;5.90;;;;;;;14.77;71.38;102244.09;5017203;28;20052;-87
2021/05/29 11:06:11;;;;;;;7.70;5.95;;;;;;;14.75;72.19;102236.13;5005721;28;20491;-88
2021/05/29 11:08:57;;;;;;;10.15;6.40;;;;;;;14.80;71.54;102239.22;5001705;28;20120;-87
2021/05/29 11:14:19;;;;;;;8.32;5.90;;;;;;;14.99;72.90;102238.19;5005591;28;20080;-90
2021/05/29 11:16:51;;;;;;;7.65;6.03;;;;;;;14.75;70.99;102232.59;4988604;28;20149;-89
2021/05/29 11:19:31;;;;;;;9.20;6.22;;;;;;;14.82;73.01;102241.78;5007306;28;20046;-88
2021/05/29 11:22:12;;;;;;;8.30;6.30;;;;;;;15.01;71.12;102241.56;5019351;28;20516;-87
2021/05/29 11:24:49;;;;;;;10.15;6.75;;;;;;;14.95;72.81;102236.78;5001583;28;20108;-87
2021/05/29 11:27:30;;;;;;;10.55;6.40;;;;;;;15.20;73.38;102234.25;5003964;28;20054;-86
2021/05/29 11:29:57;;;;;;;9.60;6.43;;;;;;;15.37;72.28;102235.22;5018870;28;20045;-87
2021/05/29 11:33:11;;;;;;;9.52;6.45;;;;;;;15.25;68.92;102240.88;5004817;28;20050;-89